Home > Products > Valid Products > TAF

000
FTUS43 KIWX 021720
TAFFWA
TAF
KFWA 021720Z 0218/0318 22015G25KT P6SM SKC
     FM030400 22015KT P6SM SCT050
      TEMPO 0304/0307 -TSRA BKN050CB
     FM030700 25010KT P6SM BKN035
     FM031500 30010KT P6SM SCT250=



000
FTUS43 KIWX 021720
TAFFWA
TAF
KFWA 021720Z 0218/0318 22015G25KT P6SM SKC
     FM030400 22015KT P6SM SCT050
      TEMPO 0304/0307 -TSRA BKN050CB
     FM030700 25010KT P6SM BKN035
     FM031500 30010KT P6SM SCT250=



000
FTUS43 KIWX 021234 RRA
TAFFWA
TAF
KFWA 021234Z 0213/0312 22008KT P6SM SCT150
     FM021500 24012KT P6SM SCT150
     FM021900 23018G26KT P6SM SCT250
     FM030000 21012KT P6SM BKN200
     FM030400 22014KT P6SM VCTS BKN050CB=



000
FTUS43 KIWX 020539
TAFFWA
TAF
KFWA 020539Z 0206/0306 22008KT P6SM SCT070
     FM021500 24015G23KT P6SM SCT120
     FM021900 23018G26KT P6SM SCT250
     FM030000 21012KT P6SM BKN200=



000
FTUS43 KIWX 012340
TAFFWA
TAF
KFWA 012340Z 0200/0224 27009KT P6SM BKN070
     FM020200 22005KT P6SM SCT080
     FM021400 23012KT P6SM SCT120 BKN200
     FM021700 23013G21KT P6SM SCT040 BKN150=



000
FTUS43 KIWX 012340
TAFFWA
TAF
KFWA 012340Z 0200/0224 27009KT P6SM BKN070
     FM020200 22005KT P6SM SCT080
     FM021400 23012KT P6SM SCT120 BKN200
     FM021700 23013G21KT P6SM SCT040 BKN150=



000
FTUS43 KIWX 011741
TAFFWA
TAF
KFWA 011741Z 0118/0218 30009KT P6SM SCT060
     FM020200 23005KT P6SM VCSH BKN060
     FM020700 20005KT P6SM SCT120
     FM021400 24012G18KT P6SM BKN250=



000
FTUS43 KIWX 011741
TAFFWA
TAF
KFWA 011741Z 0118/0218 30009KT P6SM SCT060
     FM020200 23005KT P6SM VCSH BKN060
     FM020700 20005KT P6SM SCT120
     FM021400 24012G18KT P6SM BKN250=



000
FTUS43 KIWX 011120
TAFFWA
TAF
KFWA 011120Z 0112/0212 29006KT P6SM SCT080
     FM011600 28011G17KT P6SM SCT060
     FM020400 23005KT P6SM VCTS BKN060CB
     FM020800 20004KT P6SM SCT120=



000
FTUS43 KIWX 011120
TAFFWA
TAF
KFWA 011120Z 0112/0212 29006KT P6SM SCT080
     FM011600 28011G17KT P6SM SCT060
     FM020400 23005KT P6SM VCTS BKN060CB
     FM020800 20004KT P6SM SCT120=



000
FTUS43 KIWX 010544
TAFFWA
TAF
KFWA 010544Z 0106/0206 24003KT P6SM SCT080
     FM011600 28011G17KT P6SM SCT060=



000
FTUS43 KIWX 312334
TAFFWA
TAF
KFWA 312334Z 0100/0124 31008KT P6SM SCT060
     FM010200 26005KT P6SM SKC
     FM011500 28011G17KT P6SM SCT050=



000
FTUS43 KIWX 312334
TAFFWA
TAF
KFWA 312334Z 0100/0124 31008KT P6SM SCT060
     FM010200 26005KT P6SM SKC
     FM011500 28011G17KT P6SM SCT050=



000
FTUS43 KIWX 312016 AAC
TAFFWA
TAF AMD
KFWA 312016Z 3120/0118 27013G25KT P6SM FEW070
     FM010000 26005KT P6SM SKC
     FM011500 28010KT P6SM SCT050=



000
FTUS43 KIWX 311938 AAB
TAFFWA
TAF AMD
KFWA 311938Z 3120/0118 28013G20KT P6SM VCTS SCT090CB
     FM010000 26005KT P6SM FEW030
     FM011500 28010KT P6SM SCT050=



000
FTUS43 KIWX 311841 AAA
TAFFWA
TAF AMD
KFWA 311841Z 3119/0118 28015G25KT P6SM VCTS SCT050CB
      TEMPO 3119/3121 5SM -TSRA BKN050CB
     FM010100 26005KT P6SM FEW030
     FM011500 28010KT P6SM SCT050=



000
FTUS43 KIWX 311721
TAFFWA
TAF
KFWA 311721Z 3118/0118 27013G21KT P6SM SCT070
     FM312000 28015G25KT P6SM VCTS BKN050CB
     FM010100 26005KT P6SM FEW030
     FM011500 28010KT P6SM SCT050=



000
FTUS43 KIWX 311120
TAFFWA
TAF
KFWA 311120Z 3112/0112 28006KT P6SM SKC
     FM311700 27012G17KT P6SM SCT080
     FM312000 28014G21KT P6SM BKN080
     FM010100 26004KT P6SM SKC=



000
FTUS43 KIWX 310536
TAFFWA
TAF
KFWA 310536Z 3106/0106 23004KT P6SM SKC
     FM311600 26012G17KT P6SM SCT080
     FM311900 26014G21KT P6SM BKN080
     FM312300 27008KT P6SM SCT080=



000
FTUS43 KIWX 310536
TAFFWA
TAF
KFWA 310536Z 3106/0106 23004KT P6SM SKC
     FM311600 26012G17KT P6SM SCT080
     FM311900 26014G21KT P6SM BKN080
     FM312300 27008KT P6SM SCT080=



000
FTUS43 KIWX 302320
TAFFWA
TAF
KFWA 302320Z 3100/3124 27006KT P6SM SKC
     FM311600 26012G22KT P6SM SCT050=



    US Dept of Commerce
    National Oceanic and Atmospheric Administration
    National Weather Service
    1325 East West Highway
    Silver Spring, MD 20910
    Page Author: NWS Internet Services Team
Disclaimer
Information Quality
Credits
Glossary
Privacy Policy
Freedom of Information Act (FOIA)
About Us
Career Opportunities